Terminal Aerodrome Forecast
Issued by NWS

Home | Current Version | Previous Version | Text Only | Print | Product List | Glossary On
Versions: 1 2 3 4 5 6 7 8 9 10 11 12 13 14 15 16
340
FTAK31 PAJN 231737
TAFASI
TAF
PASI 231737Z 2318/2418 09010KT P6SM -SHRA OVC050
     FM231900 10016G22KT P6SM -RA OVC035 WS020/10030KT
     FM240200 28008KT 5SM -RA BR OVC025
     FM240900 VRB05KT 5SM -RA BR OVC050
     FM241200 09003KT P6SM SKC=

USA.gov is the U.S. government's official web portal to all federal, state and local government web resources and services.